Time;durP1;ratioP1;P1;durP2;ratioP2;P2;SDS_P1;SDS_P2;PMS_P1;PMS_P2;Temp;Humidity;BMP_temperature;BMP_pressure;BME280_temperature;BME280_humidity;BME280_pressure;Samples;Min_cycle;Max_cycle;Signal;HPM_P1;HPM_P2
2022/08/16 00:00:34;;;;;;;;;;;;;;;26.11;nan;100230.06;5073754;28;1095;-42
2022/08/16 00:03:04;;;;;;;;;;;;;;;26.12;nan;100229.06;5073837;28;1255;-41
2022/08/16 00:05:31;;;;;;;;;;;;;;;26.05;nan;100222.66;5073254;28;1572;-43
2022/08/16 00:08:00;;;;;;;;;;;;;;;26.08;nan;100228.53;5070891;28;1343;-43
2022/08/16 00:10:28;;;;;;;;;;;;;;;25.98;nan;100227.75;5073569;28;878;-38
2022/08/16 00:12:55;;;;;;;;;;;;;;;25.98;nan;100232.22;5073261;28;1655;-39
2022/08/16 00:15:24;;;;;;;;;;;;;;;25.98;nan;100232.22;5072566;28;1910;-41
2022/08/16 00:17:51;;;;;;;;;;;;;;;25.94;nan;100236.16;5073306;28;1267;-42
2022/08/16 00:20:22;;;;;;;;;;;;;;;25.98;nan;100232.22;5073140;28;648;-42
2022/08/16 00:22:50;;;;;;;;;;;;;;;25.88;nan;100240.25;5073361;28;1323;-43
2022/08/16 00:25:18;;;;;;;;;;;;;;;25.88;nan;100234.06;5073527;28;870;-40
2022/08/16 00:27:45;;;;;;;;;;;;;;;25.87;nan;100240.44;5073051;28;1307;-41
2022/08/16 00:30:13;;;;;;;;;;;;;;;25.88;nan;100244.75;5073201;28;886;-42
2022/08/16 00:32:46;;;;;;;;;;;;;;;25.86;nan;100228.91;5072978;28;1290;-41
2022/08/16 00:35:17;;;;;;;;;;;;;;;25.86;nan;100228.91;5073052;28;748;-40
2022/08/16 00:37:44;;;;;;;;;;;;;;;25.84;nan;100230.03;5072328;28;1910;-43
2022/08/16 00:40:27;;;;;;;;;;;;;;;25.78;nan;100230.59;5073105;28;925;-43
2022/08/16 00:43:01;;;;;;;;;;;;;;;26.21;nan;100228.22;5072462;28;1232;-41
2022/08/16 00:45:40;;;;;;;;;;;;;;;26.71;nan;100217.13;5073295;28;869;-43
2022/08/16 00:48:20;;;;;;;;;;;;;;;26.97;nan;100215.41;5073265;28;1236;-41
2022/08/16 00:50:56;;;;;;;;;;;;;;;27.11;nan;100222.91;5073187;28;692;-36
2022/08/16 00:53:23;;;;;;;;;;;;;;;27.31;nan;100216.38;5073000;28;1284;-36
2022/08/16 00:55:52;;;;;;;;;;;;;;;27.34;nan;100208.03;5072682;28;1909;-40
2022/08/16 00:58:20;;;;;;;;;;;;;;;27.44;nan;100211.50;5072697;28;1323;-41
2022/08/16 01:01:00;;;;;;;;;;;;;;;27.50;nan;100218.91;5073003;28;948;-42
2022/08/16 01:03:27;;;;;;;;;;;;;;;27.58;nan;100210.06;5072907;28;1252;-38
2022/08/16 01:05:55;;;;;;;;;;;;;;;27.68;nan;100202.78;5072895;28;900;-41
2022/08/16 01:08:21;;;;;;;;;;;;;;;27.69;nan;100207.16;5072634;28;1260;-38
2022/08/16 01:11:02;;;;;;;;;;;;;;;27.75;nan;100206.53;5072922;28;633;-39
2022/08/16 01:13:30;;;;;;;;;;;;;;;27.75;nan;100205.69;5072367;28;1409;-37
2022/08/16 01:16:03;;;;;;;;;;;;;;;27.75;nan;100203.84;5072397;28;1971;-39
2022/08/16 01:18:34;;;;;;;;;;;;;;;27.79;nan;100196.31;5072754;28;1260;-41
2022/08/16 01:21:25;;;;;;;;;;;;;;;27.78;nan;100200.00;5072747;28;668;-39
2022/08/16 01:24:04;;;;;;;;;;;;;;;27.81;nan;100195.19;5072939;28;1289;-41
2022/08/16 01:26:32;;;;;;;;;;;;;;;27.85;nan;100193.00;5072328;28;1132;-36
2022/08/16 01:29:03;;;;;;;;;;;;;;;27.90;nan;100198.75;5072137;28;1355;-40
2022/08/16 01:31:30;;;;;;;;;;;;;;;27.90;nan;100194.22;5071542;28;1230;-42
2022/08/16 01:33:57;;;;;;;;;;;;;;;27.93;nan;100193.06;5071942;28;1197;-41
2022/08/16 01:36:24;;;;;;;;;;;;;;;27.95;nan;100196.41;5072608;28;1966;-40
2022/08/16 01:38:52;;;;;;;;;;;;;;;27.96;nan;100188.25;5072850;28;1338;-40
2022/08/16 01:41:28;;;;;;;;;;;;;;;27.98;nan;100185.38;5072604;28;640;-38
2022/08/16 01:43:55;;;;;;;;;;;;;;;28.00;nan;100183.38;5072573;28;1260;-42
2022/08/16 01:46:22;;;;;;;;;;;;;;;27.99;nan;100171.00;5072739;28;929;-43
2022/08/16 01:49:04;;;;;;;;;;;;;;;28.02;nan;100160.81;5072589;28;1370;-43
2022/08/16 01:51:32;;;;;;;;;;;;;;;28.05;nan;100160.53;5072590;28;950;-41
2022/08/16 01:53:58;;;;;;;;;;;;;;;28.05;nan;100165.03;5072451;28;1258;-41
2022/08/16 01:56:26;;;;;;;;;;;;;;;28.07;nan;100157.69;5075675;28;1902;-44
2022/08/16 01:58:53;;;;;;;;;;;;;;;28.11;nan;100164.41;5076859;28;1204;-42
2022/08/16 02:01:21;;;;;;;;;;;;;;;28.11;nan;100167.06;5076416;28;731;-41
2022/08/16 02:03:47;;;;;;;;;;;;;;;28.12;nan;100171.41;5076716;28;1335;-40
2022/08/16 02:06:16;;;;;;;;;;;;;;;28.14;nan;100158.72;5076423;28;945;-38
2022/08/16 02:08:59;;;;;;;;;;;;;;;28.16;nan;100159.38;5076113;28;1260;-42
2022/08/16 02:11:26;;;;;;;;;;;;;;;28.15;nan;100155.88;5076234;28;725;-41
2022/08/16 02:13:54;;;;;;;;;;;;;;;28.17;nan;100153.03;5075630;28;1221;-39
2022/08/16 02:16:20;;;;;;;;;;;;;;;28.18;nan;100162.72;5075860;28;1983;-39
2022/08/16 02:18:47;;;;;;;;;;;;;;;28.19;nan;100159.91;5076237;28;1246;-39
2022/08/16 02:21:15;;;;;;;;;;;;;;;28.20;nan;100158.91;5076125;28;752;-39
2022/08/16 02:23:41;;;;;;;;;;;;;;;28.21;nan;100160.56;5076126;28;1251;-37
2022/08/16 02:26:08;;;;;;;;;;;;;;;28.24;nan;100158.59;5075894;28;1312;-42
2022/08/16 02:28:36;;;;;;;;;;;;;;;28.24;nan;100154.03;5075968;28;1224;-39
2022/08/16 02:31:05;;;;;;;;;;;;;;;28.27;nan;100153.72;5075684;28;754;-40
2022/08/16 02:33:32;;;;;;;;;;;;;;;28.27;nan;100156.41;5075986;28;1323;-42
2022/08/16 02:36:11;;;;;;;;;;;;;;;28.28;nan;100159.91;5075496;28;1906;-42
2022/08/16 02:38:39;;;;;;;;;;;;;;;28.29;nan;100151.75;5074672;28;1247;-42
2022/08/16 02:41:07;;;;;;;;;;;;;;;28.30;nan;100153.41;5075757;28;878;-42
2022/08/16 02:43:35;;;;;;;;;;;;;;;28.30;nan;100145.34;5075826;28;1307;-41
2022/08/16 02:46:03;;;;;;;;;;;;;;;28.31;nan;100147.03;5075484;28;987;-39
2022/08/16 02:48:33;;;;;;;;;;;;;;;28.32;nan;100146.06;5075636;28;1209;-39
2022/08/16 02:51:01;;;;;;;;;;;;;;;28.34;nan;100145.88;5075569;28;964;-39
2022/08/16 02:53:33;;;;;;;;;;;;;;;28.34;nan;100146.72;5075730;28;1196;-39
2022/08/16 02:56:00;;;;;;;;;;;;;;;28.35;nan;100135.00;5074407;28;1034;-41
2022/08/16 02:58:26;;;;;;;;;;;;;;;28.36;nan;100135.84;5075489;28;1272;-40
2022/08/16 03:00:54;;;;;;;;;;;;;;;28.36;nan;100128.63;5074805;28;750;-40
2022/08/16 03:03:21;;;;;;;;;;;;;;;28.37;nan;100127.63;5075249;28;1264;-43
2022/08/16 03:05:50;;;;;;;;;;;;;;;28.38;nan;100120.44;5074923;28;1253;-41
2022/08/16 03:08:18;;;;;;;;;;;;;;;28.38;nan;100113.25;5075287;28;1256;-41
2022/08/16 03:11:05;;;;;;;;;;;;;;;28.39;nan;100114.91;5075382;28;1911;-40
2022/08/16 03:13:48;;;;;;;;;;;;;;;28.40;nan;100111.25;5074923;28;1352;-40
2022/08/16 03:16:17;;;;;;;;;;;;;;;28.39;nan;100106.88;5074766;28;2055;-42
2022/08/16 03:19:04;;;;;;;;;;;;;;;28.40;nan;100103.22;5074998;28;1300;-41
2022/08/16 03:21:31;;;;;;;;;;;;;;;28.42;nan;100106.59;5074435;28;1132;-41
2022/08/16 03:24:04;;;;;;;;;;;;;;;28.43;nan;100105.56;5074722;28;1272;-42
2022/08/16 03:26:31;;;;;;;;;;;;;;;28.44;nan;100103.72;5074576;28;1188;-40
2022/08/16 03:28:58;;;;;;;;;;;;;;;28.43;nan;100100.19;5074605;28;1263;-42
2022/08/16 03:31:25;;;;;;;;;;;;;;;28.44;nan;100096.53;5074807;28;921;-42
2022/08/16 03:33:51;;;;;;;;;;;;;;;28.45;nan;100103.56;5074835;28;1236;-41
2022/08/16 03:36:18;;;;;;;;;;;;;;;28.46;nan;100099.88;5074485;28;1906;-40
2022/08/16 03:38:58;;;;;;;;;;;;;;;28.45;nan;100098.22;5074308;28;1348;-41
2022/08/16 03:41:26;;;;;;;;;;;;;;;28.46;nan;100097.19;5074524;28;887;-42
2022/08/16 03:43:55;;;;;;;;;;;;;;;27.49;nan;100099.50;5074527;28;1284;-47
2022/08/16 03:46:21;;;;;;;;;;;;;;;27.14;nan;100100.47;5074558;28;827;-47
2022/08/16 03:49:09;;;;;;;;;;;;;;;27.13;nan;100087.22;5074608;28;2370;-46
2022/08/16 03:51:37;;;;;;;;;;;;;;;27.06;nan;100092.34;5073525;28;952;-47
2022/08/16 03:54:04;;;;;;;;;;;;;;;26.91;nan;100087.72;5072404;28;1284;-47
2022/08/16 03:56:37;;;;;;;;;;;;;;;26.65;nan;100078.81;5073897;28;1910;-46
2022/08/16 03:59:04;;;;;;;;;;;;;;;26.58;nan;100081.25;5073948;28;1141;-48
2022/08/16 04:01:31;;;;;;;;;;;;;;;26.63;nan;100070.94;5074154;28;1119;-39
2022/08/16 04:03:58;;;;;;;;;;;;;;;26.55;nan;100077.06;5074265;28;1572;-39
2022/08/16 04:06:25;;;;;;;;;;;;;;;26.64;nan;100077.97;5074088;28;758;-38
2022/08/16 04:08:51;;;;;;;;;;;;;;;26.63;nan;100074.44;5074263;28;1307;-38
2022/08/16 04:11:18;;;;;;;;;;;;;;;26.56;nan;100080.56;5074112;28;916;-38
2022/08/16 04:13:46;;;;;;;;;;;;;;;26.56;nan;100084.09;5073703;28;1630;-39
2022/08/16 04:16:27;;;;;;;;;;;;;;;26.72;nan;100086.03;5072490;28;1917;-39
2022/08/16 04:18:54;;;;;;;;;;;;;;;26.61;nan;100081.78;5073135;28;1237;-39
2022/08/16 04:21:26;;;;;;;;;;;;;;;26.52;nan;100088.06;5073837;28;936;-39
2022/08/16 04:23:54;;;;;;;;;;;;;;;26.65;nan;100084.16;5073555;28;1201;-40
2022/08/16 04:26:21;;;;;;;;;;;;;;;26.50;nan;100090.03;5073440;28;893;-39
2022/08/16 04:28:48;;;;;;;;;;;;;;;26.44;nan;100092.50;5073889;28;1276;-40
2022/08/16 04:31:22;;;;;;;;;;;;;;;26.77;nan;100090.94;5073600;28;794;-41
2022/08/16 04:33:49;;;;;;;;;;;;;;;26.51;nan;100091.72;5074101;28;1469;-39
2022/08/16 04:36:17;;;;;;;;;;;;;;;26.37;nan;100092.25;5073977;28;1060;-37
2022/08/16 04:38:45;;;;;;;;;;;;;;;26.30;nan;100101.00;5074072;28;1968;-39
2022/08/16 04:41:12;;;;;;;;;;;;;;;26.31;nan;100100.88;5073715;28;729;-38
2022/08/16 04:43:38;;;;;;;;;;;;;;;26.23;nan;100098.13;5074144;28;1449;-38
2022/08/16 04:46:09;;;;;;;;;;;;;;;26.24;nan;100101.59;5073847;28;730;-39
2022/08/16 04:48:51;;;;;;;;;;;;;;;26.16;nan;100102.38;5074213;28;1342;-39
2022/08/16 04:51:19;;;;;;;;;;;;;;;26.18;nan;100105.72;5073822;28;783;-39
2022/08/16 04:53:45;;;;;;;;;;;;;;;26.19;nan;100112.75;5074057;28;1263;-39
2022/08/16 04:56:12;;;;;;;;;;;;;;;26.20;nan;100106.44;5073781;28;926;-38
2022/08/16 04:58:39;;;;;;;;;;;;;;;26.25;nan;100109.47;5073916;28;1913;-39
2022/08/16 05:01:11;;;;;;;;;;;;;;;26.18;nan;100111.06;5073425;28;728;-39
2022/08/16 05:03:38;;;;;;;;;;;;;;;26.25;nan;100112.16;5073467;28;1244;-39
2022/08/16 05:06:08;;;;;;;;;;;;;;;26.30;nan;100109.84;5073643;28;659;-41
2022/08/16 05:08:34;;;;;;;;;;;;;;;26.19;nan;100123.44;5073993;28;1346;-39
2022/08/16 05:11:03;;;;;;;;;;;;;;;26.08;nan;100116.41;5073609;28;743;-39
2022/08/16 05:13:32;;;;;;;;;;;;;;;26.33;nan;100114.03;5073334;28;1471;-40
2022/08/16 05:16:08;;;;;;;;;;;;;;;26.19;nan;100117.25;5073967;28;1033;-40
2022/08/16 05:18:37;;;;;;;;;;;;;;;26.23;nan;100114.13;5073514;28;1909;-39
2022/08/16 05:21:04;;;;;;;;;;;;;;;26.15;nan;100121.16;5073520;28;894;-37
2022/08/16 05:23:35;;;;;;;;;;;;;;;26.09;nan;100122.59;5073650;28;1233;-37
2022/08/16 05:26:01;;;;;;;;;;;;;;;26.02;nan;100121.53;5073477;28;731;-38
2022/08/16 05:28:28;;;;;;;;;;;;;;;26.04;nan;100125.72;5073469;28;1349;-38
2022/08/16 05:30:56;;;;;;;;;;;;;;;26.00;nan;100119.00;5077524;28;897;-38
2022/08/16 05:33:24;;;;;;;;;;;;;;;25.94;nan;100118.75;5077520;28;1276;-39
2022/08/16 05:35:51;;;;;;;;;;;;;;;25.94;nan;100124.09;5077268;28;725;-38
2022/08/16 05:38:19;;;;;;;;;;;;;;;25.96;nan;100116.81;5077676;28;1918;-39
2022/08/16 05:40:57;;;;;;;;;;;;;;;25.93;nan;100119.75;5077436;28;980;-39
2022/08/16 05:43:26;;;;;;;;;;;;;;;25.96;nan;100117.63;5077356;28;1367;-39
2022/08/16 05:45:54;;;;;;;;;;;;;;;25.98;nan;100118.31;5077294;28;960;-38
2022/08/16 05:48:20;;;;;;;;;;;;;;;25.95;nan;100125.78;5076591;28;1366;-39
2022/08/16 05:50:52;;;;;;;;;;;;;;;25.96;nan;100122.13;5077044;28;715;-39
2022/08/16 05:53:19;;;;;;;;;;;;;;;26.00;nan;100126.16;5077310;28;1327;-39
2022/08/16 05:55:45;;;;;;;;;;;;;;;26.01;nan;100128.69;5077260;28;925;-41
2022/08/16 05:58:12;;;;;;;;;;;;;;;26.01;nan;100133.19;5076945;28;1909;-40
2022/08/16 06:00:45;;;;;;;;;;;;;;;26.11;nan;100123.31;5076535;28;675;-40
2022/08/16 06:03:12;;;;;;;;;;;;;;;26.11;nan;100122.47;5076820;28;1241;-41
2022/08/16 06:05:38;;;;;;;;;;;;;;;26.12;nan;100121.47;5076835;28;900;-39
2022/08/16 06:08:07;;;;;;;;;;;;;;;26.20;nan;100121.59;5076788;28;1355;-38
2022/08/16 06:10:33;;;;;;;;;;;;;;;26.29;nan;100124.22;5076644;28;843;-38
2022/08/16 06:13:00;;;;;;;;;;;;;;;26.25;nan;100127.31;5076451;28;1697;-38
2022/08/16 06:15:27;;;;;;;;;;;;;;;26.32;nan;100121.25;5076730;28;1468;-39
2022/08/16 06:17:53;;;;;;;;;;;;;;;26.28;nan;100124.34;5076440;28;1985;-39
2022/08/16 06:20:22;;;;;;;;;;;;;;;26.41;nan;100127.50;5076388;28;922;-38
2022/08/16 06:22:55;;;;;;;;;;;;;;;26.30;nan;100123.19;5076532;28;1240;-38
2022/08/16 06:25:24;;;;;;;;;;;;;;;26.32;nan;100123.91;5076635;28;897;-38
2022/08/16 06:28:02;;;;;;;;;;;;;;;26.39;nan;100116.97;5076076;28;1253;-38
2022/08/16 06:30:33;;;;;;;;;;;;;;;26.43;nan;100121.00;5076150;28;1577;-38
2022/08/16 06:33:01;;;;;;;;;;;;;;;26.59;nan;100117.66;5075183;28;1314;-37
2022/08/16 06:35:27;;;;;;;;;;;;;;;26.56;nan;100123.31;5076038;28;849;-39
2022/08/16 06:38:01;;;;;;;;;;;;;;;26.49;nan;100125.75;5075976;28;1910;-38
2022/08/16 06:40:28;;;;;;;;;;;;;;;26.46;nan;100123.38;5075013;28;734;-40
2022/08/16 06:42:59;;;;;;;;;;;;;;;26.49;nan;100125.75;5075944;28;1303;-44
2022/08/16 06:45:26;;;;;;;;;;;;;;;26.51;nan;100115.75;5074240;28;835;-40
2022/08/16 06:47:54;;;;;;;;;;;;;;;26.55;nan;100119.78;5075858;28;1240;-41
2022/08/16 06:50:22;;;;;;;;;;;;;;;26.76;nan;100119.47;5075601;28;817;-43
2022/08/16 06:52:55;;;;;;;;;;;;;;;26.66;nan;100117.91;5075503;28;1232;-41
2022/08/16 06:55:25;;;;;;;;;;;;;;;26.65;nan;100125.06;5075797;28;914;-41
2022/08/16 06:57:56;;;;;;;;;;;;;;;26.66;nan;100129.41;5075392;28;1983;-42
2022/08/16 07:00:23;;;;;;;;;;;;;;;26.69;nan;100126.41;5075195;28;722;-44
2022/08/16 07:02:52;;;;;;;;;;;;;;;26.71;nan;100126.28;5075081;28;1240;-39
2022/08/16 07:05:19;;;;;;;;;;;;;;;26.77;nan;100131.84;5075328;28;1636;-39
2022/08/16 07:07:48;;;;;;;;;;;;;;;26.76;nan;100132.84;5075540;28;1265;-39
2022/08/16 07:10:17;;;;;;;;;;;;;;;26.83;nan;100127.75;5075411;28;791;-39
2022/08/16 07:12:44;;;;;;;;;;;;;;;26.83;nan;100133.09;5075036;28;1550;-41
2022/08/16 07:15:28;;;;;;;;;;;;;;;26.85;nan;100131.09;5075334;28;726;-40
2022/08/16 07:17:55;;;;;;;;;;;;;;;26.90;nan;100135.00;5075077;28;1997;-40
2022/08/16 07:20:24;;;;;;;;;;;;;;;26.93;nan;100136.53;5075367;28;839;-42
2022/08/16 07:23:01;;;;;;;;;;;;;;;26.96;nan;100138.91;5073800;28;1335;-39
2022/08/16 07:25:28;;;;;;;;;;;;;;;27.01;nan;100140.13;5074377;28;942;-39
2022/08/16 07:27:54;;;;;;;;;;;;;;;27.12;nan;100147.88;5074803;28;1358;-40
2022/08/16 07:30:21;;;;;;;;;;;;;;;27.15;nan;100141.38;5074824;28;840;-40
2022/08/16 07:33:06;;;;;;;;;;;;;;;27.15;nan;100139.53;5075063;28;1208;-41
2022/08/16 07:35:33;;;;;;;;;;;;;;;27.24;nan;100144.97;5074371;28;848;-43
2022/08/16 07:37:59;;;;;;;;;;;;;;;27.24;nan;100148.44;5074448;28;1989;-46
2022/08/16 07:40:26;;;;;;;;;;;;;;;27.24;nan;100142.28;5074489;28;749;-43
2022/08/16 07:43:13;;;;;;;;;;;;;;;27.30;nan;100149.69;5075105;28;2025;-41
2022/08/16 07:45:39;;;;;;;;;;;;;;;27.32;nan;100148.53;5074221;28;784;-39
2022/08/16 07:48:08;;;;;;;;;;;;;;;27.38;nan;100150.56;5073158;28;1353;-42
2022/08/16 07:50:37;;;;;;;;;;;;;;;27.46;nan;100156.00;5074518;28;882;-43
2022/08/16 07:53:23;;;;;;;;;;;;;;;27.56;nan;100151.38;5073552;28;1260;-39
2022/08/16 07:55:50;;;;;;;;;;;;;;;27.31;nan;100154.88;5073962;28;1598;-39
2022/08/16 07:58:17;;;;;;;;;;;;;;;27.41;nan;100158.28;5074115;28;1993;-41
2022/08/16 08:01:00;;;;;;;;;;;;;;;27.54;nan;100164.06;5074611;28;778;-40
2022/08/16 08:03:27;;;;;;;;;;;;;;;27.55;nan;100163.06;5074139;28;1236;-38
2022/08/16 08:06:04;;;;;;;;;;;;;;;27.44;nan;100166.03;5073297;28;632;-39
2022/08/16 08:08:31;;;;;;;;;;;;;;;27.54;nan;100173.94;5073946;28;1544;-38
2022/08/16 08:11:17;;;;;;;;;;;;;;;27.66;nan;100175.38;5073554;28;992;-40
2022/08/16 08:13:44;;;;;;;;;;;;;;;27.82;nan;100178.09;5073940;28;1541;-44
2022/08/16 08:16:11;;;;;;;;;;;;;;;27.84;nan;100178.81;5081544;28;749;-38
2022/08/16 08:18:44;;;;;;;;;;;;;;;27.74;nan;100177.22;5093080;28;1984;-42
2022/08/16 08:21:18;;;;;;;;;;;;;;;27.70;nan;100184.72;5092416;28;719;-44
2022/08/16 08:23:46;;;;;;;;;;;;;;;27.83;nan;100187.81;5092531;28;1481;-40
2022/08/16 08:26:13;;;;;;;;;;;;;;;27.10;nan;100173.09;5087350;28;1147;-37
2022/08/16 08:28:42;;;;;;;;;;;;;;;27.26;nan;100172.38;5070228;28;1319;-39
2022/08/16 08:31:09;;;;;;;;;;;;;;;27.51;nan;100172.41;5071280;28;1094;-38
2022/08/16 08:33:36;;;;;;;;;;;;;;;27.45;nan;100183.72;5071498;28;1279;-38
2022/08/16 08:36:06;;;;;;;;;;;;;;;27.46;nan;100180.06;5071087;28;800;-42
2022/08/16 08:38:34;;;;;;;;;;;;;;;27.63;nan;100179.16;5070996;28;1914;-36
2022/08/16 08:41:09;;;;;;;;;;;;;;;27.49;nan;100185.09;5071245;28;1510;-38
2022/08/16 08:43:36;;;;;;;;;;;;;;;27.48;nan;100188.78;5071532;28;1359;-37
2022/08/16 08:46:07;;;;;;;;;;;;;;;27.72;nan;100177.41;5071001;28;656;-37
2022/08/16 08:48:44;;;;;;;;;;;;;;;27.82;nan;100182.63;5071429;28;1276;-37
2022/08/16 08:51:10;;;;;;;;;;;;;;;27.87;nan;100183.84;5066169;28;1541;-46
2022/08/16 08:53:38;;;;;;;;;;;;;;;27.89;nan;100181.00;5089375;28;1503;-37
2022/08/16 08:56:06;;;;;;;;;;;;;;;28.03;nan;100189.25;5091419;28;857;-40
2022/08/16 08:58:48;;;;;;;;;;;;;;;28.15;nan;100182.63;5091462;28;1913;-40
2022/08/16 09:01:21;;;;;;;;;;;;;;;28.25;nan;100177.16;5091525;28;668;-42
2022/08/16 09:03:57;;;;;;;;;;;;;;;28.17;nan;100179.81;5090949;28;1354;-42
2022/08/16 09:06:24;;;;;;;;;;;;;;;28.23;nan;100187.19;5090843;28;734;-42
2022/08/16 09:08:51;;;;;;;;;;;;;;;28.05;nan;100192.66;5091271;28;1275;-38
2022/08/16 09:11:18;;;;;;;;;;;;;;;28.21;nan;100186.50;5071963;28;1554;-41
2022/08/16 09:13:45;;;;;;;;;;;;;;;28.23;nan;100189.88;5069036;28;1622;-41
2022/08/16 09:16:15;;;;;;;;;;;;;;;27.98;nan;100190.72;5076435;28;1259;-41
2022/08/16 09:19:02;;;;;;;;;;;;;;;28.11;nan;100183.13;5074441;28;2194;-39
2022/08/16 09:21:29;;;;;;;;;;;;;;;28.12;nan;100188.31;5078391;28;1255;-41
2022/08/16 09:23:57;;;;;;;;;;;;;;;28.16;nan;100183.47;5070023;28;1409;-38
2022/08/16 09:26:23;;;;;;;;;;;;;;;28.10;nan;100189.47;5080246;28;1554;-38
2022/08/16 09:29:10;;;;;;;;;;;;;;;28.23;nan;100187.19;5048374;28;1201;-43
2022/08/16 09:31:42;;;;;;;;;;;;;;;28.38;nan;100190.09;5049603;28;1122;-39
2022/08/16 09:34:09;;;;;;;;;;;;;;;28.56;nan;100191.66;5050046;28;1178;-43
2022/08/16 09:36:36;;;;;;;;;;;;;;;28.22;nan;100193.56;5049844;28;1134;-40
2022/08/16 09:39:11;;;;;;;;;;;;;;;28.32;nan;100188.91;5049694;28;1973;-41
2022/08/16 09:41:42;;;;;;;;;;;;;;;28.27;nan;100185.84;5049996;28;1030;-40
2022/08/16 09:44:08;;;;;;;;;;;;;;;28.54;nan;100180.28;5049769;28;1253;-42
2022/08/16 09:46:56;;;;;;;;;;;;;;;28.44;nan;100182.25;5048772;28;2225;-40
2022/08/16 09:49:25;;;;;;;;;;;;;;;28.46;nan;100174.88;5048462;28;1244;-40
2022/08/16 09:51:54;;;;;;;;;;;;;;;28.48;nan;100164.84;5049522;28;1129;-42
2022/08/16 09:54:26;;;;;;;;;;;;;;;28.47;nan;100165.84;5052466;28;1343;-41
2022/08/16 09:56:57;;;;;;;;;;;;;;;28.55;nan;100168.53;5049240;28;1002;-39
2022/08/16 09:59:24;;;;;;;;;;;;;;;28.82;nan;100175.47;5049559;28;1906;-41
2022/08/16 10:01:52;;;;;;;;;;;;;;;28.53;nan;100180.41;5050996;28;1144;-40
2022/08/16 10:04:19;;;;;;;;;;;;;;;28.83;nan;100193.25;5050608;28;1201;-39
2022/08/16 10:06:58;;;;;;;;;;;;;;;28.95;nan;100213.34;5050862;28;1094;-41
2022/08/16 10:09:27;;;;;;;;;;;;;;;28.85;nan;100225.25;5050898;28;1387;-41
2022/08/16 10:14:59;;;;;;;;;;;;;;;29.12;nan;100222.25;5050864;28;1094;-40
2022/08/16 10:17:26;;;;;;;;;;;;;;;28.91;nan;100225.41;5053932;28;1241;-39
2022/08/16 10:19:54;;;;;;;;;;;;;;;28.68;nan;100227.88;5054313;28;1985;-39
2022/08/16 10:22:21;;;;;;;;;;;;;;;28.79;nan;100217.88;5059775;28;1453;-40
2022/08/16 10:24:48;;;;;;;;;;;;;;;28.66;nan;100223.69;5063656;28;892;-40
2022/08/16 10:27:21;;;;;;;;;;;;;;;28.53;nan;100217.94;5069051;28;1335;-38
2022/08/16 10:29:55;;;;;;;;;;;;;;;28.50;nan;100221.78;5059258;28;1031;-40
2022/08/16 10:32:27;;;;;;;;;;;;;;;28.38;nan;100217.72;5054803;28;1564;-40
2022/08/16 10:34:56;;;;;;;;;;;;;;;28.34;nan;100213.69;5059938;28;897;-39
2022/08/16 10:37:23;;;;;;;;;;;;;;;28.28;nan;100222.38;5074258;28;1201;-41
2022/08/16 10:39:58;;;;;;;;;;;;;;;28.31;nan;100240.78;5058507;28;2011;-39
2022/08/16 10:42:25;;;;;;;;;;;;;;;28.37;nan;100234.78;5053774;28;1245;-40
2022/08/16 10:44:52;;;;;;;;;;;;;;;28.44;nan;100238.50;5053858;28;1043;-43
2022/08/16 10:47:21;;;;;;;;;;;;;;;28.42;nan;100240.53;5060621;28;1390;-40
2022/08/16 10:49:47;;;;;;;;;;;;;;;28.44;nan;100248.38;5059657;28;1039;-42
2022/08/16 10:52:14;;;;;;;;;;;;;;;28.60;nan;100249.28;5053690;28;1351;-42
2022/08/16 10:54:43;;;;;;;;;;;;;;;28.54;nan;100241.91;5053423;28;1524;-41
2022/08/16 10:57:31;;;;;;;;;;;;;;;28.57;nan;100230.84;5082064;28;1366;-41
2022/08/16 10:59:58;;;;;;;;;;;;;;;28.65;nan;100230.06;5073863;28;1989;-42
2022/08/16 11:02:26;;;;;;;;;;;;;;;28.50;nan;100235.19;5073431;28;1310;-41
2022/08/16 11:05:15;;;;;;;;;;;;;;;28.57;nan;100235.38;5072576;28;2416;-41
2022/08/16 11:07:43;;;;;;;;;;;;;;;28.55;nan;100230.16;5074725;28;1236;-43
2022/08/16 11:10:20;;;;;;;;;;;;;;;28.55;nan;100216.75;5055841;28;1072;-39
2022/08/16 11:13:07;;;;;;;;;;;;;;;28.13;nan;100215.94;5052220;28;1805;-36
2022/08/16 11:15:56;;;;;;;;;;;;;;;28.15;nan;100222.81;5053473;28;2102;-42
2022/08/16 11:18:23;;;;;;;;;;;;;;;28.35;nan;100220.72;5053856;28;2060;-42
2022/08/16 11:21:11;;;;;;;;;;;;;;;28.39;nan;100215.88;5053928;28;2401;-43
2022/08/16 11:23:55;;;;;;;;;;;;;;;28.46;nan;100207.03;5053745;28;1363;-41
2022/08/16 11:26:24;;;;;;;;;;;;;;;28.33;nan;100203.97;5053056;28;924;-40
2022/08/16 11:28:52;;;;;;;;;;;;;;;28.36;nan;100205.50;5054816;28;1794;-41
2022/08/16 11:31:38;;;;;;;;;;;;;;;28.16;nan;100200.41;5079327;28;1603;-37
2022/08/16 11:34:05;;;;;;;;;;;;;;;28.19;nan;100208.09;5076349;28;1198;-38
2022/08/16 11:36:32;;;;;;;;;;;;;;;28.24;nan;100207.59;5063764;28;1410;-40
2022/08/16 11:38:58;;;;;;;;;;;;;;;28.19;nan;100199.22;5055134;28;1910;-41
2022/08/16 11:41:26;;;;;;;;;;;;;;;28.04;nan;100190.09;5053983;28;1187;-42
2022/08/16 11:43:54;;;;;;;;;;;;;;;28.15;nan;100179.97;5066153;28;1209;-38
2022/08/16 11:46:21;;;;;;;;;;;;;;;28.19;nan;100188.53;5051663;28;730;-43
2022/08/16 11:49:08;;;;;;;;;;;;;;;28.15;nan;100182.63;5054235;28;2110;-44
2022/08/16 11:51:42;;;;;;;;;;;;;;;28.14;nan;100177.47;5050069;28;1091;-44
2022/08/16 11:54:10;;;;;;;;;;;;;;;28.25;nan;100170.97;5052445;28;1260;-43
2022/08/16 11:56:47;;;;;;;;;;;;;;;28.20;nan;100163.44;5068757;28;1647;-43
2022/08/16 11:59:18;;;;;;;;;;;;;;;28.14;nan;100154.22;5067572;28;1981;-41
2022/08/16 12:01:45;;;;;;;;;;;;;;;28.24;nan;100148.69;5051903;28;919;-43
2022/08/16 12:04:24;;;;;;;;;;;;;;;28.20;nan;100139.31;5051692;28;1316;-42
2022/08/16 12:06:52;;;;;;;;;;;;;;;28.28;nan;100133.97;5051835;28;1094;-43
2022/08/16 12:09:19;;;;;;;;;;;;;;;28.23;nan;100136.31;5061728;28;1213;-40
2022/08/16 12:11:46;;;;;;;;;;;;;;;28.27;nan;100137.66;5051801;28;1167;-43
2022/08/16 12:14:13;;;;;;;;;;;;;;;28.46;nan;100126.66;5058618;28;1371;-43
2022/08/16 12:16:39;;;;;;;;;;;;;;;28.56;nan;100123.81;5056626;28;1179;-41
2022/08/16 12:19:12;;;;;;;;;;;;;;;28.69;nan;100130.44;5052021;28;1918;-40
2022/08/16 12:21:40;;;;;;;;;;;;;;;28.74;nan;100128.06;5061687;28;1156;-44
2022/08/16 12:24:25;;;;;;;;;;;;;;;28.91;nan;100130.75;5060045;28;1398;-40
2022/08/16 12:26:52;;;;;;;;;;;;;;;29.05;nan;100143.50;5051663;28;1141;-37
2022/08/16 12:29:19;;;;;;;;;;;;;;;28.89;nan;100140.78;5068053;28;1330;-42
2022/08/16 12:31:47;;;;;;;;;;;;;;;29.01;nan;100136.78;5084724;28;1044;-42
2022/08/16 12:34:26;;;;;;;;;;;;;;;28.91;nan;100122.72;5074943;28;1580;-42
2022/08/16 12:36:54;;;;;;;;;;;;;;;28.97;nan;100122.06;5080098;28;1024;-42
2022/08/16 12:39:21;;;;;;;;;;;;;;;28.85;nan;100120.72;5062572;28;1981;-42
2022/08/16 12:41:47;;;;;;;;;;;;;;;28.86;nan;100117.00;5050537;28;934;-41
2022/08/16 12:44:14;;;;;;;;;;;;;;;28.94;nan;100117.03;5049577;28;1217;-34
2022/08/16 12:48:56;;;;;;;;;;;;;;;28.85;nan;100120.72;5048452;28;1600;-37
2022/08/16 12:49:32;;;;;;;;;;;;;;;28.94;nan;100125.88;5065681;28;1505;-40
2022/08/16 12:52:08;;;;;;;;;;;;;;;28.82;nan;100115.69;5070238;28;1485;-39
2022/08/16 12:54:36;;;;;;;;;;;;;;;28.79;nan;100124.06;5062332;28;942;-40
2022/08/16 12:57:04;;;;;;;;;;;;;;;29.16;nan;100119.00;5069256;28;1411;-43
2022/08/16 12:59:31;;;;;;;;;;;;;;;29.21;nan;100119.34;5063129;28;1910;-40
2022/08/16 13:01:59;;;;;;;;;;;;;;;28.93;nan;100113.50;5049236;28;1120;-40
2022/08/16 13:04:27;;;;;;;;;;;;;;;29.02;nan;100117.84;5049193;28;1296;-41
2022/08/16 13:06:59;;;;;;;;;;;;;;;29.22;nan;100108.44;5053406;28;1629;-43
2022/08/16 13:09:28;;;;;;;;;;;;;;;29.17;nan;100105.44;5057742;28;1422;-38
2022/08/16 13:11:59;;;;;;;;;;;;;;;29.36;nan;100104.25;5049207;28;1692;-37
2022/08/16 13:14:33;;;;;;;;;;;;;;;29.05;nan;100093.38;5048604;28;1331;-37
2022/08/16 13:17:01;;;;;;;;;;;;;;;29.23;nan;100090.50;5049079;28;1083;-35
2022/08/16 13:19:28;;;;;;;;;;;;;;;28.67;nan;100084.19;5049413;28;1902;-37
2022/08/16 13:22:09;;;;;;;;;;;;;;;28.91;nan;100071.78;5049882;28;1252;-37
2022/08/16 13:24:37;;;;;;;;;;;;;;;29.22;nan;100056.63;5049451;28;1015;-37
2022/08/16 13:27:04;;;;;;;;;;;;;;;29.17;nan;100050.94;5049826;28;1367;-39
2022/08/16 13:29:31;;;;;;;;;;;;;;;29.31;nan;100057.47;5049709;28;1007;-41